sensor_id;sensor_type;location;lat;lon;timestamp;pressure;altitude;pressure_sealevel;temperature;humidity
21300;BME280;10809;49.476;11.016;2023-04-09T00:01:19;99028.19;;;7.65;57.65
21300;BME280;10809;49.476;11.016;2023-04-09T00:03:49;99024.66;;;7.65;58.12
21300;BME280;10809;49.476;11.016;2023-04-09T00:06:22;99021.19;;;7.64;58.08
21300;BME280;10809;49.476;11.016;2023-04-09T00:08:55;99017.63;;;7.65;58.03
21300;BME280;10809;49.476;11.016;2023-04-09T00:11:29;99022.09;;;7.63;58.15
21300;BME280;10809;49.476;11.016;2023-04-09T00:14:00;99029.09;;;7.64;58.21
21300;BME280;10809;49.476;11.016;2023-04-09T00:16:30;99016.88;;;7.62;57.96
21300;BME280;10809;49.476;11.016;2023-04-09T00:19:07;99025.69;;;7.61;58.04
21300;BME280;10809;49.476;11.016;2023-04-09T00:21:41;99024.81;;;7.60;57.91
21300;BME280;10809;49.476;11.016;2023-04-09T00:24:15;99021.41;;;7.58;58.23
21300;BME280;10809;49.476;11.016;2023-04-09T00:27:00;99014.44;;;7.56;57.93
21300;BME280;10809;49.476;11.016;2023-04-09T00:29:31;99018.00;;;7.55;58.18
21300;BME280;10809;49.476;11.016;2023-04-09T00:32:01;99020.66;;;7.53;58.34
21300;BME280;10809;49.476;11.016;2023-04-09T00:34:41;99018.97;;;7.52;58.22
21300;BME280;10809;49.476;11.016;2023-04-09T00:37:15;99020.78;;;7.50;58.22
21300;BME280;10809;49.476;11.016;2023-04-09T00:39:51;99015.56;;;7.49;58.21
21300;BME280;10809;49.476;11.016;2023-04-09T00:42:25;99015.59;;;7.47;58.02
21300;BME280;10809;49.476;11.016;2023-04-09T00:44:56;99021.78;;;7.46;58.39
21300;BME280;10809;49.476;11.016;2023-04-09T00:47:28;99028.81;;;7.46;58.24
21300;BME280;10809;49.476;11.016;2023-04-09T00:50:00;99015.69;;;7.44;58.49
21300;BME280;10809;49.476;11.016;2023-04-09T00:52:31;99026.25;;;7.44;58.48
21300;BME280;10809;49.476;11.016;2023-04-09T00:55:03;99015.69;;;7.44;58.50
21300;BME280;10809;49.476;11.016;2023-04-09T00:57:35;99022.72;;;7.44;58.36
21300;BME280;10809;49.476;11.016;2023-04-09T01:00:06;99014.88;;;7.42;58.35
21300;BME280;10809;49.476;11.016;2023-04-09T01:02:37;99016.63;;;7.43;58.44
21300;BME280;10809;49.476;11.016;2023-04-09T01:05:08;99022.78;;;7.42;58.54
21300;BME280;10809;49.476;11.016;2023-04-09T01:11:00;99017.50;;;7.42;58.30
21300;BME280;10809;49.476;11.016;2023-04-09T01:16:15;99015.78;;;7.41;58.45
21300;BME280;10809;49.476;11.016;2023-04-09T01:18:54;99008.81;;;7.40;58.57
21300;BME280;10809;49.476;11.016;2023-04-09T01:21:29;99015.84;;;7.40;58.57
21300;BME280;10809;49.476;11.016;2023-04-09T01:24:20;99011.50;;;7.39;58.71
21300;BME280;10809;49.476;11.016;2023-04-09T01:27:07;99007.13;;;7.38;58.67
21300;BME280;10809;49.476;11.016;2023-04-09T01:30:00;99015.03;;;7.38;58.67
21300;BME280;10809;49.476;11.016;2023-04-09T01:32:40;99012.44;;;7.36;58.59
21300;BME280;10809;49.476;11.016;2023-04-09T01:35:12;99008.97;;;7.36;58.85
21300;BME280;10809;49.476;11.016;2023-04-09T01:37:53;99012.47;;;7.35;58.71
21300;BME280;10809;49.476;11.016;2023-04-09T01:40:24;99012.53;;;7.33;58.87
21300;BME280;10809;49.476;11.016;2023-04-09T01:42:56;99015.16;;;7.33;58.93
21300;BME280;10809;49.476;11.016;2023-04-09T01:45:30;99016.13;;;7.31;59.06
21300;BME280;10809;49.476;11.016;2023-04-09T01:48:02;99017.94;;;7.29;58.88
21300;BME280;10809;49.476;11.016;2023-04-09T01:50:33;99012.69;;;7.29;59.13
21300;BME280;10809;49.476;11.016;2023-04-09T01:53:13;99011.88;;;7.27;59.08
21300;BME280;10809;49.476;11.016;2023-04-09T01:55:44;99018.00;;;7.27;58.96
21300;BME280;10809;49.476;11.016;2023-04-09T01:58:15;99014.53;;;7.25;58.88
21300;BME280;10809;49.476;11.016;2023-04-09T02:00:47;99010.19;;;7.24;59.04
21300;BME280;10809;49.476;11.016;2023-04-09T02:03:34;99017.22;;;7.24;59.19
21300;BME280;10809;49.476;11.016;2023-04-09T02:06:16;99010.22;;;7.23;59.09
21300;BME280;10809;49.476;11.016;2023-04-09T02:08:51;99012.88;;;7.23;59.19
21300;BME280;10809;49.476;11.016;2023-04-09T02:11:23;99019.06;;;7.22;58.99
21300;BME280;10809;49.476;11.016;2023-04-09T02:13:57;99021.75;;;7.20;58.99
21300;BME280;10809;49.476;11.016;2023-04-09T02:16:28;99022.63;;;7.19;59.05
21300;BME280;10809;49.476;11.016;2023-04-09T02:19:00;99027.09;;;7.17;59.22
21300;BME280;10809;49.476;11.016;2023-04-09T02:21:31;99020.09;;;7.16;59.19
21300;BME280;10809;49.476;11.016;2023-04-09T02:24:02;99025.41;;;7.15;59.08
21300;BME280;10809;49.476;11.016;2023-04-09T02:26:32;99019.28;;;7.14;59.19
21300;BME280;10809;49.476;11.016;2023-04-09T02:29:09;99029.00;;;7.12;59.02
21300;BME280;10809;49.476;11.016;2023-04-09T02:31:39;99019.44;;;7.10;59.15
21300;BME280;10809;49.476;11.016;2023-04-09T02:34:10;99020.38;;;7.07;59.31
21300;BME280;10809;49.476;11.016;2023-04-09T02:36:40;99022.16;;;7.05;59.23
21300;BME280;10809;49.476;11.016;2023-04-09T02:39:11;99018.72;;;7.03;59.48
21300;BME280;10809;49.476;11.016;2023-04-09T02:41:41;99018.81;;;7.00;59.13
21300;BME280;10809;49.476;11.016;2023-04-09T02:44:12;99019.78;;;6.98;59.42
21300;BME280;10809;49.476;11.016;2023-04-09T02:46:49;99021.63;;;6.94;59.26
21300;BME280;10809;49.476;11.016;2023-04-09T02:49:25;99013.81;;;6.91;59.19
21300;BME280;10809;49.476;11.016;2023-04-09T02:51:56;99014.78;;;6.89;59.22
21300;BME280;10809;49.476;11.016;2023-04-09T02:54:27;99018.34;;;6.86;59.43
21300;BME280;10809;49.476;11.016;2023-04-09T02:56:57;99018.47;;;6.82;59.14
21300;BME280;10809;49.476;11.016;2023-04-09T02:59:28;99023.00;;;6.78;59.21
21300;BME280;10809;49.476;11.016;2023-04-09T03:01:58;99016.13;;;6.73;59.11
21300;BME280;10809;49.476;11.016;2023-04-09T03:04:32;99017.13;;;6.69;59.15
21300;BME280;10809;49.476;11.016;2023-04-09T03:07:02;99013.75;;;6.64;59.11
21300;BME280;10809;49.476;11.016;2023-04-09T03:09:33;99010.38;;;6.59;59.06
21300;BME280;10809;49.476;11.016;2023-04-09T03:12:04;99011.44;;;6.53;59.03
21300;BME280;10809;49.476;11.016;2023-04-09T03:14:34;99008.94;;;6.49;59.02
21300;BME280;10809;49.476;11.016;2023-04-09T03:17:05;99012.56;;;6.45;59.15
21300;BME280;10809;49.476;11.016;2023-04-09T03:19:35;99001.34;;;6.38;59.22
21300;BME280;10809;49.476;11.016;2023-04-09T03:22:06;99009.34;;;6.34;59.15
21300;BME280;10809;49.476;11.016;2023-04-09T03:24:36;99010.41;;;6.28;59.12
21300;BME280;10809;49.476;11.016;2023-04-09T03:27:10;99011.34;;;6.24;59.10
21300;BME280;10809;49.476;11.016;2023-04-09T03:29:40;99008.91;;;6.18;59.21
21300;BME280;10809;49.476;11.016;2023-04-09T03:32:11;99014.28;;;6.14;59.25
21300;BME280;10809;49.476;11.016;2023-04-09T03:34:41;99017.94;;;6.08;59.27
21300;BME280;10809;49.476;11.016;2023-04-09T03:37:12;99027.66;;;6.04;59.33
21300;BME280;10809;49.476;11.016;2023-04-09T03:39:42;99026.03;;;6.00;59.46
21300;BME280;10809;49.476;11.016;2023-04-09T03:42:13;99023.53;;;5.96;59.32
21300;BME280;10809;49.476;11.016;2023-04-09T03:44:53;99023.66;;;5.91;59.52
21300;BME280;10809;49.476;11.016;2023-04-09T03:47:31;99023.75;;;5.87;59.34
21300;BME280;10809;49.476;11.016;2023-04-09T03:50:02;99028.22;;;5.83;59.36
21300;BME280;10809;49.476;11.016;2023-04-09T03:52:45;99025.75;;;5.77;59.46
21300;BME280;10809;49.476;11.016;2023-04-09T03:55:18;99035.47;;;5.74;59.38
21300;BME280;10809;49.476;11.016;2023-04-09T03:57:50;99032.94;;;5.69;59.19
21300;BME280;10809;49.476;11.016;2023-04-09T04:00:23;99038.31;;;5.65;59.35
21300;BME280;10809;49.476;11.016;2023-04-09T04:02:53;99029.66;;;5.60;59.46
21300;BME280;10809;49.476;11.016;2023-04-09T04:05:43;99039.38;;;5.58;59.69
21300;BME280;10809;49.476;11.016;2023-04-09T04:08:18;99041.19;;;5.54;59.22
21300;BME280;10809;49.476;11.016;2023-04-09T04:10:49;99037.78;;;5.51;59.49
21300;BME280;10809;49.476;11.016;2023-04-09T04:13:22;99039.63;;;5.47;59.46
21300;BME280;10809;49.476;11.016;2023-04-09T04:16:06;99039.75;;;5.43;59.63
21300;BME280;10809;49.476;11.016;2023-04-09T04:18:36;99046.78;;;5.41;59.56
21300;BME280;10809;49.476;11.016;2023-04-09T04:21:12;99042.50;;;5.37;59.36
21300;BME280;10809;49.476;11.016;2023-04-09T04:23:51;99046.06;;;5.33;59.68
21300;BME280;10809;49.476;11.016;2023-04-09T04:26:29;99058.41;;;5.31;59.52
21300;BME280;10809;49.476;11.016;2023-04-09T04:29:00;99049.72;;;5.27;59.69
21300;BME280;10809;49.476;11.016;2023-04-09T04:31:59;99055.91;;;5.25;59.49
21300;BME280;10809;49.476;11.016;2023-04-09T04:34:36;99065.56;;;5.21;59.83
21300;BME280;10809;49.476;11.016;2023-04-09T04:37:19;99067.41;;;5.18;59.57
21300;BME280;10809;49.476;11.016;2023-04-09T04:39:50;99067.47;;;5.15;59.99
21300;BME280;10809;49.476;11.016;2023-04-09T04:42:21;99064.91;;;5.12;59.90
21300;BME280;10809;49.476;11.016;2023-04-09T04:45:02;99064.09;;;5.08;59.78
21300;BME280;10809;49.476;11.016;2023-04-09T04:47:46;99072.91;;;5.06;59.67
21300;BME280;10809;49.476;11.016;2023-04-09T04:50:17;99068.59;;;5.03;59.96
21300;BME280;10809;49.476;11.016;2023-04-09T04:52:59;99075.59;;;5.03;59.62
21300;BME280;10809;49.476;11.016;2023-04-09T04:55:35;99066.88;;;5.01;59.96
21300;BME280;10809;49.476;11.016;2023-04-09T04:58:07;99072.16;;;4.99;60.05
21300;BME280;10809;49.476;11.016;2023-04-09T05:00:46;99071.31;;;4.99;60.21
21300;BME280;10809;49.476;11.016;2023-04-09T05:03:20;99070.47;;;4.97;60.09
21300;BME280;10809;49.476;11.016;2023-04-09T05:06:00;99079.22;;;4.97;59.93
21300;BME280;10809;49.476;11.016;2023-04-09T05:08:38;99077.47;;;4.96;60.03
21300;BME280;10809;49.476;11.016;2023-04-09T05:11:12;99080.13;;;4.95;60.44
21300;BME280;10809;49.476;11.016;2023-04-09T05:13:46;99074.88;;;4.95;60.21
21300;BME280;10809;49.476;11.016;2023-04-09T05:16:32;99081.03;;;4.94;60.22
21300;BME280;10809;49.476;11.016;2023-04-09T05:19:07;99081.03;;;4.94;60.50
21300;BME280;10809;49.476;11.016;2023-04-09T05:21:44;99078.38;;;4.95;60.46
21300;BME280;10809;49.476;11.016;2023-04-09T05:24:18;99081.00;;;4.95;60.20
21300;BME280;10809;49.476;11.016;2023-04-09T05:26:48;99081.00;;;4.95;60.55
21300;BME280;10809;49.476;11.016;2023-04-09T05:29:19;99082.72;;;4.96;60.44
21300;BME280;10809;49.476;11.016;2023-04-09T05:31:50;99082.72;;;4.96;60.45
21300;BME280;10809;49.476;11.016;2023-04-09T05:34:39;99080.94;;;4.98;60.74
21300;BME280;10809;49.476;11.016;2023-04-09T05:37:11;99086.16;;;5.00;60.65
21300;BME280;10809;49.476;11.016;2023-04-09T05:39:42;99083.53;;;5.00;60.67
21300;BME280;10809;49.476;11.016;2023-04-09T05:42:12;99084.41;;;5.00;60.47
21300;BME280;10809;49.476;11.016;2023-04-09T05:44:57;99083.50;;;5.01;60.95
21300;BME280;10809;49.476;11.016;2023-04-09T05:47:28;99084.34;;;5.03;61.01
21300;BME280;10809;49.476;11.016;2023-04-09T05:50:08;99088.66;;;5.06;60.82
21300;BME280;10809;49.476;11.016;2023-04-09T05:52:42;99089.50;;;5.08;61.20
21300;BME280;10809;49.476;11.016;2023-04-09T05:55:23;99089.44;;;5.11;60.88
21300;BME280;10809;49.476;11.016;2023-04-09T05:58:05;99083.25;;;5.13;61.12
21300;BME280;10809;49.476;11.016;2023-04-09T06:00:36;99082.31;;;5.16;61.12
21300;BME280;10809;49.476;11.016;2023-04-09T06:03:08;99090.06;;;5.20;61.12
21300;BME280;10809;49.476;11.016;2023-04-09T06:05:38;99094.44;;;5.23;61.21
21300;BME280;10809;49.476;11.016;2023-04-09T06:08:11;99091.75;;;5.26;61.55
21300;BME280;10809;49.476;11.016;2023-04-09T06:10:43;99090.81;;;5.28;61.11
21300;BME280;10809;49.476;11.016;2023-04-09T06:13:13;99096.84;;;5.33;61.52
21300;BME280;10809;49.476;11.016;2023-04-09T06:15:45;99101.16;;;5.36;61.51
21300;BME280;10809;49.476;11.016;2023-04-09T06:18:16;99095.84;;;5.39;61.80
21300;BME280;10809;49.476;11.016;2023-04-09T06:20:46;99094.88;;;5.43;61.48
21300;BME280;10809;49.476;11.016;2023-04-09T06:23:16;99087.78;;;5.46;61.26
21300;BME280;10809;49.476;11.016;2023-04-09T06:25:47;99087.66;;;5.51;61.45
21300;BME280;10809;49.476;11.016;2023-04-09T06:28:17;99091.09;;;5.54;61.42
21300;BME280;10809;49.476;11.016;2023-04-09T06:30:48;99083.16;;;5.57;61.60
21300;BME280;10809;49.476;11.016;2023-04-09T06:33:18;99094.44;;;5.62;61.48
21300;BME280;10809;49.476;11.016;2023-04-09T06:35:49;99097.81;;;5.66;61.70
21300;BME280;10809;49.476;11.016;2023-04-09T06:38:20;99102.13;;;5.70;61.33
21300;BME280;10809;49.476;11.016;2023-04-09T06:40:51;99101.06;;;5.77;62.63
21300;BME280;10809;49.476;11.016;2023-04-09T06:43:24;99105.75;;;5.99;64.73
21300;BME280;10809;49.476;11.016;2023-04-09T06:45:56;99104.66;;;6.43;66.50
21300;BME280;10809;49.476;11.016;2023-04-09T06:48:27;99105.78;;;6.97;67.31
21300;BME280;10809;49.476;11.016;2023-04-09T06:51:00;99101.25;;;7.60;67.57
21300;BME280;10809;49.476;11.016;2023-04-09T06:53:34;99104.25;;;8.30;67.22
21300;BME280;10809;49.476;11.016;2023-04-09T06:56:05;99096.56;;;8.97;67.19
21300;BME280;10809;49.476;11.016;2023-04-09T06:58:35;99096.63;;;9.65;66.56
21300;BME280;10809;49.476;11.016;2023-04-09T07:01:06;99086.91;;;10.30;65.46
21300;BME280;10809;49.476;11.016;2023-04-09T07:03:43;99097.22;;;10.96;64.40
21300;BME280;10809;49.476;11.016;2023-04-09T07:06:13;99091.81;;;11.57;63.40
21300;BME280;10809;49.476;11.016;2023-04-09T07:08:44;99091.81;;;12.11;62.03
21300;BME280;10809;49.476;11.016;2023-04-09T07:11:23;99090.00;;;12.64;60.92
21300;BME280;10809;49.476;11.016;2023-04-09T07:13:54;99085.88;;;13.08;59.52
21300;BME280;10809;49.476;11.016;2023-04-09T07:16:29;99080.84;;;13.52;58.99
21300;BME280;10809;49.476;11.016;2023-04-09T07:18:59;99087.44;;;13.91;58.53
21300;BME280;10809;49.476;11.016;2023-04-09T07:21:29;99084.41;;;14.28;57.42
21300;BME280;10809;49.476;11.016;2023-04-09T07:24:01;99085.91;;;14.63;55.90
21300;BME280;10809;49.476;11.016;2023-04-09T07:26:32;99081.56;;;14.91;55.34
21300;BME280;10809;49.476;11.016;2023-04-09T07:29:02;99080.75;;;15.18;54.49
21300;BME280;10809;49.476;11.016;2023-04-09T07:31:33;99081.91;;;15.42;53.81
21300;BME280;10809;49.476;11.016;2023-04-09T07:34:04;99088.66;;;15.62;53.49
21300;BME280;10809;49.476;11.016;2023-04-09T07:36:34;99082.91;;;15.82;52.23
21300;BME280;10809;49.476;11.016;2023-04-09T07:39:04;99083.50;;;15.99;52.15
21300;BME280;10809;49.476;11.016;2023-04-09T07:41:35;99084.34;;;16.14;52.27
21300;BME280;10809;49.476;11.016;2023-04-09T07:44:06;99075.34;;;16.29;50.97
21300;BME280;10809;49.476;11.016;2023-04-09T07:46:37;99075.25;;;16.43;50.98
21300;BME280;10809;49.476;11.016;2023-04-09T07:49:08;99081.41;;;16.58;50.34
21300;BME280;10809;49.476;11.016;2023-04-09T07:51:45;99077.69;;;16.73;51.24
21300;BME280;10809;49.476;11.016;2023-04-09T07:54:15;99071.59;;;16.83;49.22
21300;BME280;10809;49.476;11.016;2023-04-09T07:56:47;99075.34;;;16.93;48.91
21300;BME280;10809;49.476;11.016;2023-04-09T07:59:21;99079.22;;;17.02;48.61
21300;BME280;10809;49.476;11.016;2023-04-09T08:01:51;99081.56;;;17.06;47.48
21300;BME280;10809;49.476;11.016;2023-04-09T08:04:21;99079.53;;;17.10;47.36
21300;BME280;10809;49.476;11.016;2023-04-09T08:06:52;99083.81;;;17.12;47.37
21300;BME280;10809;49.476;11.016;2023-04-09T08:09:23;99085.34;;;17.16;47.09
21300;BME280;10809;49.476;11.016;2023-04-09T08:11:53;99078.94;;;17.19;47.09
21300;BME280;10809;49.476;11.016;2023-04-09T08:14:24;99085.78;;;17.23;47.16
21300;BME280;10809;49.476;11.016;2023-04-09T08:16:54;99084.38;;;17.30;46.74
21300;BME280;10809;49.476;11.016;2023-04-09T08:19:25;99079.56;;;17.35;46.09
21300;BME280;10809;49.476;11.016;2023-04-09T08:21:56;99082.22;;;17.35;46.11
21300;BME280;10809;49.476;11.016;2023-04-09T08:24:27;99085.66;;;17.37;46.06
21300;BME280;10809;49.476;11.016;2023-04-09T08:26:58;99083.72;;;17.39;45.20
21300;BME280;10809;49.476;11.016;2023-04-09T08:29:28;99076.66;;;17.38;44.80
21300;BME280;10809;49.476;11.016;2023-04-09T08:31:59;99076.75;;;17.36;44.86
21300;BME280;10809;49.476;11.016;2023-04-09T08:34:33;99085.00;;;17.33;44.55
21300;BME280;10809;49.476;11.016;2023-04-09T08:37:03;99082.66;;;17.29;43.84
21300;BME280;10809;49.476;11.016;2023-04-09T08:39:34;99077.63;;;17.24;43.82
21300;BME280;10809;49.476;11.016;2023-04-09T08:42:05;99079.66;;;17.21;44.32
21300;BME280;10809;49.476;11.016;2023-04-09T08:44:37;99072.59;;;17.20;43.86
21300;BME280;10809;49.476;11.016;2023-04-09T08:47:08;99078.94;;;17.19;43.78
21300;BME280;10809;49.476;11.016;2023-04-09T08:49:41;99079.16;;;17.16;43.95
21300;BME280;10809;49.476;11.016;2023-04-09T08:52:12;99078.38;;;17.14;43.97
21300;BME280;10809;49.476;11.016;2023-04-09T08:54:45;99082.88;;;17.13;43.80
21300;BME280;10809;49.476;11.016;2023-04-09T08:57:15;99074.91;;;17.12;43.51
21300;BME280;10809;49.476;11.016;2023-04-09T08:59:49;99078.03;;;17.06;43.26
21300;BME280;10809;49.476;11.016;2023-04-09T09:02:23;99082.22;;;16.97;43.65
21300;BME280;10809;49.476;11.016;2023-04-09T09:04:54;99074.94;;;16.87;42.36
21300;BME280;10809;49.476;11.016;2023-04-09T09:07:30;99069.34;;;16.77;43.07
21300;BME280;10809;49.476;11.016;2023-04-09T09:10:01;99081.53;;;16.69;42.51
21300;BME280;10809;49.476;11.016;2023-04-09T09:12:38;99082.38;;;16.57;42.81
21300;BME280;10809;49.476;11.016;2023-04-09T09:15:27;99085.94;;;16.43;44.04
21300;BME280;10809;49.476;11.016;2023-04-09T09:17:59;99093.84;;;16.32;42.12
21300;BME280;10809;49.476;11.016;2023-04-09T09:20:29;99081.34;;;16.18;42.33
21300;BME280;10809;49.476;11.016;2023-04-09T09:23:00;99082.38;;;16.03;42.37
21300;BME280;10809;49.476;11.016;2023-04-09T09:25:37;99081.44;;;15.90;43.15
21300;BME280;10809;49.476;11.016;2023-04-09T09:28:10;99086.41;;;15.82;43.12
21300;BME280;10809;49.476;11.016;2023-04-09T09:30:41;99074.41;;;15.75;42.61
21300;BME280;10809;49.476;11.016;2023-04-09T09:33:12;99084.53;;;15.70;42.33
21300;BME280;10809;49.476;11.016;2023-04-09T09:35:52;99080.53;;;15.63;43.00
21300;BME280;10809;49.476;11.016;2023-04-09T09:38:23;99077.59;;;15.54;41.62
21300;BME280;10809;49.476;11.016;2023-04-09T09:40:54;99083.72;;;15.42;42.17
21300;BME280;10809;49.476;11.016;2023-04-09T09:43:40;99084.44;;;15.30;43.01
21300;BME280;10809;49.476;11.016;2023-04-09T09:46:20;99077.97;;;15.20;42.39
21300;BME280;10809;49.476;11.016;2023-04-09T09:48:51;99090.91;;;15.12;42.27
21300;BME280;10809;49.476;11.016;2023-04-09T09:51:25;99084.63;;;14.99;42.28
21300;BME280;10809;49.476;11.016;2023-04-09T09:53:57;99077.53;;;14.84;42.23
21300;BME280;10809;49.476;11.016;2023-04-09T09:56:34;99096.28;;;14.68;42.94
21300;BME280;10809;49.476;11.016;2023-04-09T09:59:20;99088.06;;;14.57;43.46
21300;BME280;10809;49.476;11.016;2023-04-09T10:01:58;99085.66;;;14.52;43.24
21300;BME280;10809;49.476;11.016;2023-04-09T10:04:32;99076.97;;;14.49;42.95
21300;BME280;10809;49.476;11.016;2023-04-09T10:07:05;99082.41;;;14.47;42.74
21300;BME280;10809;49.476;11.016;2023-04-09T10:09:38;99082.59;;;14.44;42.32
21300;BME280;10809;49.476;11.016;2023-04-09T10:12:10;99077.75;;;14.35;42.32
21300;BME280;10809;49.476;11.016;2023-04-09T10:14:41;99087.34;;;14.24;42.26
21300;BME280;10809;49.476;11.016;2023-04-09T10:17:16;99080.06;;;14.12;42.42
21300;BME280;10809;49.476;11.016;2023-04-09T10:19:55;99076.38;;;13.99;42.70
21300;BME280;10809;49.476;11.016;2023-04-09T10:22:30;99068.22;;;13.86;42.90
21300;BME280;10809;49.476;11.016;2023-04-09T10:25:10;99074.22;;;13.74;43.31
21300;BME280;10809;49.476;11.016;2023-04-09T10:28:00;99058.78;;;13.65;43.33
21300;BME280;10809;49.476;11.016;2023-04-09T10:30:35;99056.19;;;13.64;43.57
21300;BME280;10809;49.476;11.016;2023-04-09T10:33:11;99055.19;;;13.66;43.35
21300;BME280;10809;49.476;11.016;2023-04-09T10:35:46;99053.09;;;13.71;43.35
21300;BME280;10809;49.476;11.016;2023-04-09T10:38:38;99059.72;;;13.80;43.61
21300;BME280;10809;49.476;11.016;2023-04-09T10:41:36;99058.16;;;13.91;44.00
21300;BME280;10809;49.476;11.016;2023-04-09T10:44:27;99057.72;;;13.99;43.33
21300;BME280;10809;49.476;11.016;2023-04-09T10:46:57;99059.28;;;14.03;42.13
21300;BME280;10809;49.476;11.016;2023-04-09T10:49:43;99052.72;;;14.08;42.73
21300;BME280;10809;49.476;11.016;2023-04-09T10:52:14;99056.66;;;14.17;42.42
21300;BME280;10809;49.476;11.016;2023-04-09T10:54:45;99043.84;;;14.23;41.67
21300;BME280;10809;49.476;11.016;2023-04-09T10:57:20;99041.00;;;14.26;41.07
21300;BME280;10809;49.476;11.016;2023-04-09T10:59:53;99038.34;;;14.26;40.50
21300;BME280;10809;49.476;11.016;2023-04-09T11:05:45;99049.91;;;14.11;41.37
21300;BME280;10809;49.476;11.016;2023-04-09T11:08:11;99050.25;;;14.05;41.55
21300;BME280;10809;49.476;11.016;2023-04-09T11:10:43;99041.56;;;14.02;41.59
21300;BME280;10809;49.476;11.016;2023-04-09T11:13:16;99045.28;;;13.99;41.17
21300;BME280;10809;49.476;11.016;2023-04-09T11:15:46;99048.13;;;13.96;40.82
21300;BME280;10809;49.476;11.016;2023-04-09T11:21:00;99044.41;;;13.99;41.58
21300;BME280;10809;49.476;11.016;2023-04-09T11:23:31;99042.25;;;14.05;40.87
21300;BME280;10809;49.476;11.016;2023-04-09T11:26:02;99032.88;;;14.14;40.96
21300;BME280;10809;49.476;11.016;2023-04-09T11:28:33;99043.75;;;14.25;41.12
21300;BME280;10809;49.476;11.016;2023-04-09T11:31:07;99024.56;;;14.34;41.07
21300;BME280;10809;49.476;11.016;2023-04-09T11:33:45;99023.78;;;14.47;41.10
21300;BME280;10809;49.476;11.016;2023-04-09T11:36:15;99027.44;;;14.60;40.13
21300;BME280;10809;49.476;11.016;2023-04-09T11:38:47;99028.50;;;14.72;40.47
21300;BME280;10809;49.476;11.016;2023-04-09T11:41:32;99031.28;;;14.85;40.72
21300;BME280;10809;49.476;11.016;2023-04-09T11:44:07;99019.06;;;14.95;39.95
21300;BME280;10809;49.476;11.016;2023-04-09T11:46:41;99026.41;;;15.05;39.32
21300;BME280;10809;49.476;11.016;2023-04-09T11:49:11;99026.78;;;15.13;39.06
21300;BME280;10809;49.476;11.016;2023-04-09T11:51:49;99028.13;;;15.20;39.43
21300;BME280;10809;49.476;11.016;2023-04-09T11:54:20;99029.38;;;15.29;38.84
21300;BME280;10809;49.476;11.016;2023-04-09T11:56:50;99020.88;;;15.36;39.17
21300;BME280;10809;49.476;11.016;2023-04-09T11:59:31;99023.00;;;15.45;39.39
21300;BME280;10809;49.476;11.016;2023-04-09T12:02:05;99015.34;;;15.53;39.07
21300;BME280;10809;49.476;11.016;2023-04-09T12:04:48;99012.19;;;15.61;39.34
21300;BME280;10809;49.476;11.016;2023-04-09T12:07:33;99012.53;;;15.69;39.15
21300;BME280;10809;49.476;11.016;2023-04-09T12:10:06;99016.63;;;15.74;38.27
21300;BME280;10809;49.476;11.016;2023-04-09T12:15:20;99014.41;;;15.81;37.94
21300;BME280;10809;49.476;11.016;2023-04-09T12:17:56;99012.38;;;15.84;38.59
21300;BME280;10809;49.476;11.016;2023-04-09T12:23:04;99008.25;;;15.93;37.87
21300;BME280;10809;49.476;11.016;2023-04-09T12:25:40;99007.78;;;16.00;37.42
21300;BME280;10809;49.476;11.016;2023-04-09T12:28:12;99005.53;;;16.07;37.26
21300;BME280;10809;49.476;11.016;2023-04-09T12:30:49;99003.31;;;16.13;37.93
21300;BME280;10809;49.476;11.016;2023-04-09T12:33:20;99009.84;;;16.22;38.28
21300;BME280;10809;49.476;11.016;2023-04-09T12:35:51;98999.53;;;16.30;37.72
21300;BME280;10809;49.476;11.016;2023-04-09T12:38:21;99003.38;;;16.38;37.28
21300;BME280;10809;49.476;11.016;2023-04-09T12:40:51;99005.63;;;16.44;36.70
21300;BME280;10809;49.476;11.016;2023-04-09T12:43:22;99005.53;;;16.46;36.04
21300;BME280;10809;49.476;11.016;2023-04-09T12:45:53;98994.22;;;16.42;36.87
21300;BME280;10809;49.476;11.016;2023-04-09T12:48:23;98993.56;;;16.39;36.59
21300;BME280;10809;49.476;11.016;2023-04-09T12:50:53;98991.09;;;16.36;36.51
21300;BME280;10809;49.476;11.016;2023-04-09T12:53:24;98988.84;;;16.30;36.23
21300;BME280;10809;49.476;11.016;2023-04-09T12:55:55;98981.19;;;16.24;36.14
21300;BME280;10809;49.476;11.016;2023-04-09T12:58:26;98978.28;;;16.14;36.00
21300;BME280;10809;49.476;11.016;2023-04-09T13:00:57;98978.91;;;16.05;36.02
21300;BME280;10809;49.476;11.016;2023-04-09T13:03:27;98979.72;;;15.93;36.28
21300;BME280;10809;49.476;11.016;2023-04-09T13:05:58;98984.81;;;15.84;36.18
21300;BME280;10809;49.476;11.016;2023-04-09T13:08:29;98982.03;;;15.73;35.66
21300;BME280;10809;49.476;11.016;2023-04-09T13:11:00;98984.53;;;15.62;36.27
21300;BME280;10809;49.476;11.016;2023-04-09T13:13:30;98980.75;;;15.52;36.43
21300;BME280;10809;49.476;11.016;2023-04-09T13:16:01;98982.09;;;15.45;36.84
21300;BME280;10809;49.476;11.016;2023-04-09T13:18:32;98981.41;;;15.41;36.99
21300;BME280;10809;49.476;11.016;2023-04-09T13:21:02;98975.44;;;15.38;37.39
21300;BME280;10809;49.476;11.016;2023-04-09T13:23:33;98974.63;;;15.36;36.54
21300;BME280;10809;49.476;11.016;2023-04-09T13:26:04;98974.63;;;15.36;36.81
21300;BME280;10809;49.476;11.016;2023-04-09T13:28:43;98970.47;;;15.32;36.85
21300;BME280;10809;49.476;11.016;2023-04-09T13:31:14;98970.75;;;15.27;36.75
21300;BME280;10809;49.476;11.016;2023-04-09T13:33:44;98974.47;;;15.25;37.21
21300;BME280;10809;49.476;11.016;2023-04-09T13:36:15;98972.75;;;15.24;36.67
21300;BME280;10809;49.476;11.016;2023-04-09T13:38:46;98961.88;;;15.27;36.84
21300;BME280;10809;49.476;11.016;2023-04-09T13:41:16;98958.06;;;15.31;36.56
21300;BME280;10809;49.476;11.016;2023-04-09T13:43:47;98966.47;;;15.39;37.14
21300;BME280;10809;49.476;11.016;2023-04-09T13:46:17;98959.66;;;15.47;37.79